Time;durP1;ratioP1;P1;durP2;ratioP2;P2;SDS_P1;SDS_P2;PMS_P1;PMS_P2;Temp;Humidity;BMP_temperature;BMP_pressure;BME280_temperature;BME280_humidity;BME280_pressure;Samples;Min_cycle;Max_cycle;Signal;HPM_P1;HPM_P2
2024/04/19 00:02:26;;;;;;;;;25.00;22.00;;;;;9.09;100.00;98396.94;8237065;21;94253;-58
2024/04/19 00:05:29;;;;;;;;;24.67;23.00;;;;;8.99;100.00;98384.03;8180254;21;97152;-58
2024/04/19 00:08:35;;;;;;;;;27.00;25.00;;;;;9.10;100.00;98403.97;8237231;21;94667;-57
2024/04/19 00:11:41;;;;;;;;;21.00;20.00;;;;;9.00;100.00;98385.66;8234656;21;95259;-57
2024/04/19 00:14:43;;;;;;;;;25.60;22.80;;;;;9.01;100.00;98394.56;8237020;21;94534;-57
2024/04/19 00:17:51;;;;;;;;;27.20;24.00;;;;;9.05;100.00;98398.44;8237073;21;94621;-58
2024/04/19 00:21:14;;;;;;;;;26.20;23.80;;;;;9.06;100.00;98394.72;8238315;21;94635;-57
2024/04/19 00:24:19;;;;;;;;;26.00;22.00;;;;;9.04;100.00;98391.44;8189753;21;94454;-57
2024/04/19 00:27:25;;;;;;;;;24.00;23.00;;;;;9.12;100.00;98391.13;8234803;21;95838;-57
2024/04/19 00:30:27;;;;;;;;;25.00;23.40;;;;;9.05;100.00;98385.00;8231750;21;94471;-58
2024/04/19 00:33:35;;;;;;;;;27.60;25.00;;;;;9.17;100.00;98396.66;8231687;21;94811;-58
2024/04/19 00:36:41;;;;;;;;;24.60;21.60;;;;;9.12;100.00;98399.19;8186699;21;94668;-57
2024/04/19 00:39:44;;;;;;;;;21.75;20.25;;;;;8.96;100.00;98380.97;8235531;21;94633;-57
2024/04/19 00:42:51;;;;;;;;;23.40;21.00;;;;;9.00;100.00;98395.59;8235767;21;95099;-58
2024/04/19 00:45:54;;;;;;;;;25.00;23.50;;;;;8.92;100.00;98403.97;8237100;21;94644;-58
2024/04/19 00:49:17;;;;;;;;;23.40;21.00;;;;;8.92;100.00;98394.03;8236793;21;94573;-58
2024/04/19 00:52:20;;;;;;;;;22.00;21.80;;;;;8.88;100.00;98398.22;8236439;21;94523;-58
2024/04/19 00:55:25;;;;;;;;;24.25;21.75;;;;;8.83;100.00;98375.75;8235055;21;94612;-58
2024/04/19 00:58:31;;;;;;;;;22.00;21.20;;;;;8.92;100.00;98390.53;8239254;21;94315;-57
2024/04/19 01:01:37;;;;;;;;;25.40;22.00;;;;;8.93;100.00;98386.81;8238987;21;94557;-58
2024/04/19 01:04:45;;;;;;;;;25.40;22.80;;;;;8.84;100.00;98391.66;8235315;21;94279;-57
2024/04/19 01:07:51;;;;;;;;;24.00;23.00;;;;;8.82;100.00;98384.84;8188876;21;94673;-57
2024/04/19 01:10:54;;;;;;;;;23.00;22.00;;;;;8.87;100.00;98385.00;8191368;21;94543;-58
2024/04/19 01:14:00;;;;;;;;;22.00;21.00;;;;;8.72;100.00;98381.84;8184349;21;94702;-57
2024/04/19 01:17:05;;;;;;;;;24.00;21.00;;;;;8.67;100.00;98396.75;8238820;21;94666;-57
2024/04/19 01:20:11;;;;;;;;;23.00;21.20;;;;;8.66;100.00;98392.44;8186134;21;94470;-57
2024/04/19 01:23:19;;;;;;;;;21.80;21.00;;;;;8.73;100.00;98391.56;8186344;21;94879;-58
2024/04/19 01:26:25;;;;;;;;;24.33;22.00;;;;;8.76;100.00;98393.78;8189583;21;95284;-58
2024/04/19 01:29:30;;;;;;;;;24.60;23.00;;;;;8.74;100.00;98398.56;8197283;21;94433;-53
2024/04/19 01:32:35;;;;;;;;;21.00;19.00;;;;;8.69;100.00;98394.69;8269807;21;94241;-53
2024/04/19 01:35:38;;;;;;;;;24.40;22.00;;;;;8.72;100.00;98403.34;8263191;21;96485;-54
2024/04/19 01:38:43;;;;;;;;;22.75;22.50;;;;;8.70;100.00;98385.56;8266256;21;94436;-54
2024/04/19 01:41:49;;;;;;;;;26.00;23.00;;;;;8.69;100.00;98394.69;8219173;21;94615;-54
2024/04/19 01:44:54;;;;;;;;;24.00;22.00;;;;;8.67;100.00;98394.09;8178505;21;94321;-53
2024/04/19 01:47:57;;;;;;;;;23.80;22.00;;;;;8.62;100.00;98385.03;8268880;21;94279;-53
2024/04/19 01:51:02;;;;;;;;;22.20;21.00;;;;;8.50;100.00;98390.31;8266811;21;96797;-54
2024/04/19 01:54:05;;;;;;;;;23.20;21.60;;;;;8.45;100.00;98392.84;8221861;21;94310;-54
2024/04/19 01:57:13;;;;;;;;;26.60;23.60;;;;;8.37;100.00;98384.22;8221705;21;94543;-54
2024/04/19 02:00:16;;;;;;;;;22.00;21.00;;;;;8.35;100.00;98386.31;8260546;21;96513;-54
2024/04/19 02:03:21;;;;;;;;;23.75;22.00;;;;;8.26;100.00;98378.50;8268423;21;94238;-54
2024/04/19 02:06:24;;;;;;;;;22.00;21.67;;;;;8.27;100.00;98390.06;8268950;21;94843;-54
2024/04/19 02:09:30;;;;;;;;;23.80;22.00;;;;;8.06;100.00;98383.19;8269796;21;94328;-53
2024/04/19 02:12:38;;;;;;;;;26.00;22.80;;;;;7.97;100.00;98373.75;8222598;21;98168;-54
2024/04/19 02:15:40;;;;;;;;;24.00;22.00;;;;;8.03;100.00;98386.31;8267724;21;94309;-54
2024/04/19 02:18:46;;;;;;;;;24.40;22.40;;;;;7.99;100.00;98387.81;8267310;21;94295;-54
2024/04/19 02:21:48;;;;;;;;;23.00;20.60;;;;;7.71;100.00;98369.41;8178156;21;97396;-53
2024/04/19 02:24:54;;;;;;;;;24.00;23.00;;;;;7.80;100.00;98392.25;8222819;21;94235;-53
2024/04/19 02:31:18;;;;;;;;;21.80;19.00;;;;;7.67;100.00;98384.28;8222305;21;94250;-54
2024/04/19 02:34:23;;;;;;;;;22.00;20.00;;;;;7.54;100.00;98381.66;8269833;21;94245;-54
2024/04/19 02:37:29;;;;;;;;;20.20;18.20;;;;;7.49;100.00;98386.03;8222496;21;94972;-53
2024/04/19 02:40:34;;;;;;;;;19.20;18.40;;;;;7.37;100.00;98378.69;8264476;21;96966;-53
2024/04/19 02:43:42;;;;;;;;;20.00;18.00;;;;;7.54;100.00;98380.84;8221777;21;94264;-54
2024/04/19 02:46:49;;;;;;;;;23.00;22.00;;;;;7.46;100.00;98379.25;8218335;21;94296;-53
2024/04/19 02:49:54;;;;;;;;;22.40;20.40;;;;;7.60;100.00;98380.81;8216631;21;94288;-53
2024/04/19 02:53:00;;;;;;;;;21.40;21.00;;;;;7.59;100.00;98373.81;8209659;21;94830;-55
2024/04/19 02:56:07;;;;;;;;;22.00;21.00;;;;;7.59;100.00;98373.81;8256329;21;94602;-53
2024/04/19 02:59:15;;;;;;;;;21.20;19.60;;;;;7.66;100.00;98379.16;8215356;21;96960;-53
2024/04/19 03:02:20;;;;;;;;;21.00;20.00;;;;;7.71;100.00;98384.69;8215933;21;96287;-53
2024/04/19 03:05:25;;;;;;;;;21.25;19.25;;;;;7.28;100.00;98302.19;8265750;21;94633;-53
2024/04/19 03:08:30;;;;;;;;;23.00;19.00;;;;;7.77;100.00;98381.16;8213539;21;96533;-54
2024/04/19 03:11:36;;;;;;;;;21.40;19.40;;;;;7.73;100.00;98371.84;8260603;21;94476;-53
2024/04/19 03:14:43;;;;;;;;;23.60;19.00;;;;;7.71;100.00;98387.38;8214416;21;96390;-54
2024/04/19 03:17:49;;;;;;;;;21.00;18.60;;;;;7.72;100.00;98367.56;8264891;21;94342;-54
2024/04/19 03:21:00;;;;;;;;;28.00;23.25;;;;;7.73;100.00;98380.75;8264624;21;94440;-54
2024/04/19 03:24:06;;;;;;;;;23.00;22.00;;;;;7.62;100.00;98375.25;8218784;21;94417;-54
2024/04/19 03:27:11;;;;;;;;;24.00;23.50;;;;;7.65;100.00;98377.50;8260742;21;94179;-55
2024/04/19 03:30:33;;;;;;;;;24.40;23.00;;;;;7.55;100.00;98374.44;8261125;21;94289;-54
2024/04/19 03:33:39;;;;;;;;;23.60;21.40;;;;;7.57;100.00;98378.59;8169941;21;94573;-54
2024/04/19 03:36:45;;;;;;;;;24.00;23.50;;;;;7.61;100.00;98382.47;8259511;21;94967;-54
2024/04/19 03:39:51;;;;;;;;;27.00;24.00;;;;;7.70;100.00;98377.66;8263658;21;94296;-53
2024/04/19 03:42:58;;;;;;;;;21.00;20.00;;;;;7.66;100.00;98371.09;8215254;21;94296;-53
2024/04/19 03:46:04;;;;;;;;;27.00;24.50;;;;;7.85;100.00;98386.25;8254309;21;96330;-56
2024/04/19 03:49:09;;;;;;;;;24.00;22.60;;;;;7.94;100.00;98381.44;8258683;21;94236;-54
2024/04/19 03:52:15;;;;;;;;;24.00;23.60;;;;;8.02;100.00;98382.00;8252181;21;94673;-54
2024/04/19 03:55:20;;;;;;;;;26.40;25.60;;;;;8.03;100.00;98383.63;8257483;21;94294;-53
2024/04/19 03:58:25;;;;;;;;;26.75;24.75;;;;;8.12;100.00;98387.69;8258332;21;94384;-53
2024/04/19 04:01:33;;;;;;;;;23.80;21.40;;;;;8.13;100.00;98380.47;8252641;21;96296;-53
2024/04/19 04:04:38;;;;;;;;;23.80;22.80;;;;;8.04;100.00;98373.72;8259201;21;94259;-54
2024/04/19 04:07:44;;;;;;;;;23.60;21.20;;;;;8.05;100.00;98373.50;8259733;21;94370;-53
2024/04/19 04:10:49;;;;;;;;;24.50;23.00;;;;;8.03;100.00;98369.38;8213553;21;96320;-54
2024/04/19 04:13:54;;;;;;;;;26.00;23.40;;;;;7.95;100.00;98377.72;8219781;21;94586;-53
2024/04/19 04:17:02;;;;;;;;;22.80;22.20;;;;;8.01;100.00;98368.81;8266407;21;94856;-53
2024/04/19 04:20:08;;;;;;;;;21.50;20.00;;;;;7.87;100.00;98359.19;8218755;21;94397;-53
2024/04/19 04:23:14;;;;;;;;;27.60;24.60;;;;;7.85;100.00;98364.78;8264871;21;94286;-54
2024/04/19 04:26:19;;;;;;;;;26.40;25.40;;;;;7.92;100.00;98376.28;8261639;21;94840;-54
2024/04/19 04:29:27;;;;;;;;;23.00;22.00;;;;;7.85;100.00;98364.78;8214663;21;96310;-53
2024/04/19 04:32:35;;;;;;;;;27.00;25.40;;;;;7.95;100.00;98375.03;8252484;21;94521;-54
2024/04/19 04:35:40;;;;;;;;;25.00;23.50;;;;;7.92;100.00;98367.41;8260725;21;94340;-54
2024/04/19 04:38:45;;;;;;;;;23.00;21.00;;;;;7.90;100.00;98367.63;8214746;21;94579;-55
2024/04/19 04:41:50;;;;;;;;;22.50;22.50;;;;;7.86;100.00;98355.69;8265395;21;94315;-53
2024/04/19 04:44:55;;;;;;;;;24.00;22.00;;;;;7.97;100.00;98359.50;8261953;21;96510;-54
2024/04/19 04:48:03;;;;;;;;;24.00;21.50;;;;;8.02;100.00;98355.13;8260840;21;94542;-55
2024/04/19 04:51:08;;;;;;;;;25.00;22.00;;;;;8.03;100.00;98364.03;8264013;21;94233;-54
2024/04/19 04:54:14;;;;;;;;;22.00;20.40;;;;;8.00;100.00;98353.72;8263390;21;94279;-55
2024/04/19 04:57:19;;;;;;;;;25.00;21.50;;;;;8.10;100.00;98351.38;8217404;21;94302;-54
2024/04/19 05:00:28;;;;;;;;;22.00;21.00;;;;;7.95;100.00;98338.28;8278258;20;96510;-84
2024/04/19 05:03:37;;;;;;;;;22.75;21.50;;;;;7.65;100.00;98288.97;8294620;21;97343;-84
2024/04/19 05:06:42;;;;;;;;;19.00;18.33;;;;;7.53;100.00;98243.22;8292688;21;95804;-85
2024/04/19 05:09:49;;;;;;;;;18.60;16.40;;;;;7.50;100.00;98224.91;8340515;21;94967;-85
2024/04/19 05:12:55;;;;;;;;;22.40;21.40;;;;;8.26;100.00;98343.59;8294192;21;97595;-85
2024/04/19 05:16:00;;;;;;;;;18.40;16.00;;;;;7.83;100.00;98252.28;8249736;21;96713;-84
2024/04/19 05:19:08;;;;;;;;;17.00;15.50;;;;;8.20;100.00;98309.56;8294797;21;97212;-85
2024/04/19 05:22:14;;;;;;;;;20.00;19.00;;;;;8.34;100.00;98315.66;8296016;20;94323;-84
2024/04/19 05:25:20;;;;;;;;;15.80;14.80;;;;;7.64;100.00;98196.94;8295378;20;96070;-86
2024/04/19 05:28:25;;;;;;;;;18.20;16.20;;;;;7.85;100.00;98227.91;8341892;20;97612;-86
2024/04/19 05:31:31;;;;;;;;;17.60;16.60;;;;;8.68;100.00;98322.34;8342284;20;94495;-85
2024/04/19 05:34:39;;;;;;;;;16.40;15.40;;;;;8.76;100.00;98323.91;8341418;20;94638;-86
2024/04/19 05:37:44;;;;;;;;;16.00;14.40;;;;;8.67;100.00;98285.78;8341442;20;94665;-86
2024/04/19 05:40:50;;;;;;;;;16.50;14.50;;;;;9.22;100.00;98345.72;8333754;20;96385;-84
2024/04/19 05:43:55;;;;;;;;;16.00;14.00;;;;;9.00;100.00;98307.69;8294585;21;97671;-82
2024/04/19 05:47:01;;;;;;;;;17.60;15.00;;;;;8.97;100.00;98310.84;8249985;21;96690;-83
2024/04/19 05:50:12;;;;;;;;;17.25;15.75;;;;;8.39;100.00;98211.09;8294200;21;97400;-82
2024/04/19 05:53:18;;;;;;;;;14.00;13.75;;;;;9.26;100.00;98306.53;8288676;21;95477;-83
2024/04/19 05:56:23;;;;;;;;;16.50;15.00;;;;;9.01;100.00;98255.56;8293226;21;95730;-82
2024/04/19 05:59:29;;;;;;;;;13.00;12.00;;;;;9.19;100.00;98272.75;8340517;20;94277;-84
2024/04/19 06:02:34;;;;;;;;;13.00;12.00;;;;;9.08;100.00;98266.25;8249571;20;96446;-84
2024/04/19 06:05:42;;;;;;;;;13.20;12.00;;;;;8.90;100.00;98185.63;8294886;20;94283;-83
2024/04/19 06:08:48;;;;;;;;;14.80;13.80;;;;;9.20;100.00;98221.38;8295777;20;96031;-85
2024/04/19 06:11:53;;;;;;;;;13.00;13.00;;;;;9.73;100.00;98237.53;8250785;21;97503;-82
2024/04/19 06:14:59;;;;;;;;;15.40;13.00;;;;;9.57;100.00;98192.47;8295568;21;97693;-82
2024/04/19 06:18:05;;;;;;;;;16.00;15.00;;;;;9.87;100.00;98189.69;8249939;20;97518;-85
2024/04/19 06:21:13;;;;;;;;;10.40;9.20;;;;;10.75;100.00;98322.38;8335776;20;96511;-85
2024/04/19 06:24:19;;;;;;;;;9.00;8.80;;;;;10.01;100.00;98164.19;8296310;20;97648;-85
2024/04/19 06:27:25;;;;;;;;;11.00;10.00;;;;;11.20;100.00;98332.50;8250676;20;97545;-85
2024/04/19 06:30:31;;;;;;;;;9.60;9.00;;;;;11.37;100.00;98313.69;8296255;21;97881;-83
2024/04/19 06:33:37;;;;;;;;;11.00;10.80;;;;;11.26;100.00;98261.38;8250461;21;95635;-85
2024/04/19 06:36:45;;;;;;;;;9.00;8.60;;;;;11.53;100.00;98289.41;8286605;20;96690;-85
2024/04/19 06:39:50;;;;;;;;;9.50;8.50;;;;;11.55;100.00;98235.19;8251174;20;97428;-85
2024/04/19 06:43:09;;;;;;;;;6.80;6.20;;;;;12.25;100.00;98329.31;8295428;21;96010;-85
2024/04/19 06:46:18;;;;;;;;;6.75;6.75;;;;;12.21;100.00;98277.66;8295319;20;97523;-85
2024/04/19 06:49:25;;;;;;;;;5.80;5.80;;;;;12.08;100.00;98213.94;8250834;20;96707;-86
2024/04/19 06:52:33;;;;;;;;;8.00;7.00;;;;;11.91;100.00;98186.16;8250401;20;96956;-85
2024/04/19 06:55:39;;;;;;;;;6.40;6.00;;;;;12.29;100.00;98233.16;8295761;20;94810;-85
2024/04/19 06:58:48;;;;;;;;;5.00;4.40;;;;;12.24;100.00;98252.81;8294906;20;94710;-85
2024/04/19 07:01:54;;;;;;;;;7.00;6.00;;;;;12.63;100.00;98260.94;8333771;20;96732;-85
2024/04/19 07:05:00;;;;;;;;;6.00;6.00;;;;;12.44;100.00;98214.44;8294587;21;98159;-85
2024/04/19 07:08:08;;;;;;;;;5.00;5.00;;;;;12.21;100.00;98174.97;8295434;20;96120;-85
2024/04/19 07:11:14;;;;;;;;;6.00;5.00;;;;;12.50;100.00;98175.59;8250539;20;97487;-85
2024/04/19 07:14:20;;;;;;;;;4.00;4.00;;;;;13.36;100.00;98287.56;8240761;20;97243;-54
2024/04/19 07:17:25;;;;;;;;;4.00;4.00;;;;;13.49;100.00;98275.53;8334092;21;95309;-53
2024/04/19 07:20:31;;;;;;;;;4.00;4.00;;;;;13.65;100.00;98275.44;8316298;21;94793;-57
2024/04/19 07:23:39;;;;;;;;;3.00;3.00;;;;;13.62;100.00;98272.41;8307353;21;94306;-57
2024/04/19 07:26:45;;;;;;;;;5.00;5.00;;;;;13.61;100.00;98255.34;8259264;21;94322;-57
2024/04/19 07:29:50;;;;;;;;;5.00;5.00;;;;;13.79;100.00;98263.09;8302050;21;95036;-58
2024/04/19 07:32:55;;;;;;;;;5.00;5.00;;;;;13.66;100.00;98252.69;8257631;21;94652;-58
2024/04/19 07:36:00;;;;;;;;;5.80;5.00;;;;;13.92;100.00;98252.91;8300978;21;94810;-57
2024/04/19 07:39:09;;;;;;;;;5.00;4.80;;;;;14.04;100.00;98257.06;8307131;21;94314;-57
2024/04/19 07:42:14;;;;;;;;;4.50;4.00;;;;;14.17;100.00;98256.63;8306787;21;94394;-57
2024/04/19 07:45:22;;;;;;;;;4.60;4.60;;;;;14.21;100.00;98252.34;8258666;21;95178;-57
2024/04/19 07:48:28;;;;;;;;;4.00;4.00;;;;;14.36;100.00;98248.94;8308381;21;94719;-57
2024/04/19 07:51:34;;;;;;;;;4.00;4.00;;;;;14.43;100.00;98263.06;8260122;21;94552;-57
2024/04/19 07:54:42;;;;;;;;;3.80;3.00;;;;;14.57;100.00;98244.44;8308706;21;94869;-57
2024/04/19 07:57:49;;;;;;;;;2.40;2.00;;;;;14.76;100.00;98247.53;8257074;21;94700;-57
2024/04/19 08:00:55;;;;;;;;;4.00;3.80;;;;;14.87;100.00;98249.19;8308860;21;94631;-58
2024/04/19 08:04:00;;;;;;;;;4.00;4.00;;;;;15.00;100.00;98251.44;8306379;21;94529;-58
2024/04/19 08:07:08;;;;;;;;;3.40;3.40;;;;;15.15;100.00;98236.00;8308639;21;94669;-57
2024/04/19 08:10:27;;;;;;;;;3.25;3.00;;;;;15.15;100.00;98238.72;8306653;21;94424;-56
2024/04/19 08:13:39;;;;;;;;;4.00;4.00;;;;;15.28;100.00;98250.19;8308367;21;94862;-57
2024/04/19 08:16:45;;;;;;;;;4.00;3.00;;;;;15.15;100.00;98229.75;8307181;21;94949;-57
2024/04/19 08:19:51;;;;;;;;;3.60;3.00;;;;;15.26;100.00;98217.03;8305532;21;94529;-57
2024/04/19 08:22:57;;;;;;;;;4.00;3.00;;;;;15.56;100.00;98236.13;8308876;21;95109;-57
2024/04/19 08:26:05;;;;;;;;;3.75;3.00;;;;;15.62;100.00;98228.81;8308306;21;94355;-57
2024/04/19 08:29:10;;;;;;;;;4.00;3.00;;;;;15.57;100.00;98202.47;8300331;21;94659;-57
2024/04/19 08:32:30;;;;;;;;;2.00;2.00;;;;;15.27;100.00;98216.78;8283363;21;96245;-52
2024/04/19 08:35:36;;;;;;;;;4.00;3.00;;;;;15.32;100.00;98227.66;8336858;21;94327;-53
2024/04/19 08:38:41;;;;;;;;;3.60;3.00;;;;;15.25;100.00;98229.00;8335485;21;94387;-55
2024/04/19 08:41:51;;;;;;;;;4.60;4.00;;;;;15.12;100.00;98206.69;8333442;21;96452;-54
2024/04/19 08:44:58;;;;;;;;;5.00;4.00;;;;;15.10;100.00;98211.56;8331661;21;94631;-53
2024/04/19 08:48:04;;;;;;;;;4.00;4.00;;;;;15.18;100.00;98211.06;8286212;21;94220;-52
2024/04/19 08:51:13;;;;;;;;;4.00;4.00;;;;;15.41;100.00;98214.34;8334891;21;94328;-53
2024/04/19 08:54:32;;;;;;;;;4.60;4.00;;;;;15.57;100.00;98206.00;8289415;21;94276;-52
2024/04/19 08:57:42;;;;;;;;;3.00;3.00;;;;;15.59;100.00;98197.56;8333368;21;94448;-53
2024/04/19 09:00:49;;;;;;;;;4.00;4.00;;;;;16.03;97.47;98186.94;8288432;21;94551;-53
2024/04/19 09:03:55;;;;;;;;;5.00;5.00;;;;;16.26;98.27;98186.38;8289312;21;94160;-52
2024/04/19 09:07:00;;;;;;;;;3.50;3.50;;;;;16.18;92.26;98183.38;8333655;21;94278;-54
2024/04/19 09:10:06;;;;;;;;;3.00;3.00;;;;;16.30;94.22;98190.19;8289163;21;97391;-52
2024/04/19 09:13:14;;;;;;;;;4.00;4.00;;;;;16.10;95.14;98203.00;8328988;21;94848;-53
2024/04/19 09:16:20;;;;;;;;;3.80;3.00;;;;;16.14;94.29;98182.31;8331131;21;96596;-53
2024/04/19 09:19:26;;;;;;;;;4.40;4.40;;;;;16.38;94.30;98184.16;8333811;21;94263;-53
2024/04/19 09:22:31;;;;;;;;;4.00;3.60;;;;;16.39;91.91;98185.81;8335286;21;94573;-53
2024/04/19 09:25:38;;;;;;;;;4.00;3.67;;;;;16.66;91.38;98185.50;8326154;21;95177;-53
2024/04/19 09:28:46;;;;;;;;;3.60;3.00;;;;;16.47;89.30;98181.69;8331510;21;94711;-54
2024/04/19 09:31:52;;;;;;;;;3.00;3.00;;;;;16.40;95.04;98179.28;8288861;21;94421;-53
2024/04/19 09:34:57;;;;;;;;;4.00;4.00;;;;;16.09;91.83;98169.53;8290157;21;94215;-53
2024/04/19 09:38:03;;;;;;;;;3.00;3.00;;;;;16.16;97.60;98180.97;8284450;21;96482;-53
2024/04/19 09:45:02;;;;;;;;;3.20;3.20;;;;;15.41;98.17;98144.53;8207158;21;94146;-84
2024/04/19 09:48:11;;;;;;;;;2.60;2.60;;;;;15.50;98.32;98167.38;8207144;21;94356;-84
2024/04/19 09:51:17;;;;;;;;;4.60;4.00;;;;;14.68;100.00;98061.66;8198559;21;94790;-83
2024/04/19 10:23:39;;;;;;;;;5.00;5.00;;;;;17.41;86.05;98079.91;8068701;20;1734473;-56
2024/04/19 10:26:47;;;;;;;;;3.00;3.00;;;;;17.63;75.23;98077.56;8061573;21;96567;-87
2024/04/19 10:29:53;;;;;;;;;4.00;4.00;;;;;17.95;78.55;98041.50;7943802;21;97450;-55
2024/04/19 10:33:01;;;;;;;;;3.00;3.00;;;;;17.98;75.80;98084.59;8072210;21;97764;-55
2024/04/19 10:36:07;;;;;;;;;4.00;3.50;;;;;17.09;79.04;97987.84;8050888;21;97049;-56
2024/04/19 10:43:16;;;;;;;;;3.00;3.00;;;;;17.31;84.18;98067.19;7930482;21;97315;31
2024/04/19 10:46:22;;;;;;;;;6.00;5.00;;;;;16.89;88.98;98026.94;8008994;21;97522;-86
2024/04/19 10:49:29;;;;;;;;;4.40;4.40;;;;;16.43;85.62;97973.84;7971256;21;97182;-57
2024/04/19 10:52:36;;;;;;;;;4.00;3.00;;;;;16.94;87.58;98049.78;7949633;21;94245;-56
2024/04/19 10:55:42;;;;;;;;;3.00;3.00;;;;;16.95;87.19;98051.41;7986249;21;94279;-57
2024/04/19 10:58:50;;;;;;;;;5.00;4.00;;;;;16.62;87.54;98031.19;8049730;21;95059;-57
2024/04/19 11:01:59;;;;;;;;;7.00;6.00;;;;;16.67;88.62;98039.31;8050314;21;95910;-57
2024/04/19 11:05:06;;;;;;;;;5.00;3.40;;;;;16.62;89.29;98042.06;7997358;21;95069;-57
2024/04/19 11:08:12;;;;;;;;;3.00;3.00;;;;;16.34;84.67;98016.34;8044240;21;96340;-57
2024/04/19 11:11:18;;;;;;;;;4.00;3.00;;;;;16.24;80.97;98030.00;7997607;21;96535;-57
2024/04/19 11:14:28;;;;;;;;;3.00;3.00;;;;;16.16;81.12;98023.25;8004157;21;94421;-57
2024/04/19 11:17:33;;;;;;;;;4.00;3.00;;;;;16.34;83.90;98014.44;8042557;21;94810;-57
2024/04/19 11:20:43;;;;;;;;;4.00;4.00;;;;;16.69;87.46;98015.38;8050950;21;94602;-56
2024/04/19 11:23:57;;;;;;;;;5.00;4.00;;;;;16.78;88.35;97989.97;8043246;21;94857;-57
2024/04/19 11:27:04;;;;;;;;;4.00;3.75;;;;;17.12;90.15;97998.16;8041521;21;94976;-57
2024/04/19 11:30:13;;;;;;;;;3.00;3.00;;;;;17.24;95.78;97989.63;7994434;21;94500;-57
2024/04/19 11:33:19;;;;;;;;;3.00;3.00;;;;;17.61;94.77;97987.09;8033999;21;96453;-57
2024/04/19 11:36:27;;;;;;;;;3.00;3.00;;;;;17.62;82.41;98001.53;8036121;21;96762;-57
2024/04/19 11:39:33;;;;;;;;;2.80;2.80;;;;;17.60;84.10;98001.00;7994435;21;94346;-57
2024/04/19 11:42:39;;;;;;;;;2.00;2.00;;;;;17.70;82.15;97982.63;8037279;21;94409;-57
2024/04/19 11:45:48;;;;;;;;;2.00;2.00;;;;;17.88;78.59;97977.53;8039780;21;94254;-57
2024/04/19 11:48:54;;;;;;;;;3.40;3.00;;;;;18.09;78.69;97990.63;7952454;21;96357;-57
2024/04/19 11:52:00;;;;;;;;;3.00;3.00;;;;;18.30;76.73;97974.00;8040013;21;94441;-57
2024/04/19 11:55:07;;;;;;;;;3.80;3.00;;;;;18.37;72.95;97982.63;7952319;21;94562;-57
2024/04/19 11:58:14;;;;;;;;;4.00;4.00;;;;;18.25;71.03;97963.97;8039214;21;94758;-57
2024/04/19 12:01:25;;;;;;;;;5.00;4.00;;;;;18.43;76.74;97965.06;7952347;21;95714;-58
2024/04/19 12:04:34;;;;;;;;;2.40;2.40;;;;;18.38;73.87;97970.59;8039087;21;94326;-58
2024/04/19 12:07:41;;;;;;;;;3.50;3.00;;;;;18.21;77.24;97971.09;7989792;21;94921;-58
2024/04/19 12:10:46;;;;;;;;;4.00;4.00;;;;;18.20;79.58;97950.38;8040071;21;94628;-58
2024/04/19 12:13:51;;;;;;;;;4.00;4.00;;;;;17.72;80.20;97930.56;8040628;21;95303;-58
2024/04/19 12:17:22;;;;;;;;;4.00;4.00;;;;;17.51;78.84;97940.03;8037783;21;94079;-58
2024/04/19 12:20:33;;;;;;;;;3.00;3.00;;;;;17.29;87.25;97944.09;7994863;21;94268;-58
2024/04/19 12:23:55;;;;;;;;;3.00;3.00;;;;;17.42;91.39;97949.94;8032804;21;95051;-58
2024/04/19 12:27:04;;;;;;;;;4.00;4.00;;;;;17.17;94.84;97948.28;7992549;21;95000;-58
2024/04/19 12:30:10;;;;;;;;;3.00;3.00;;;;;16.68;94.39;97940.25;8037586;21;94361;-58
2024/04/19 12:33:19;;;;;;;;;4.00;4.00;;;;;16.64;98.79;97929.13;8031514;21;94668;-58
2024/04/19 12:36:25;;;;;;;;;3.00;3.00;;;;;16.91;97.18;97920.44;8031756;21;96931;-58
2024/04/19 12:39:30;;;;;;;;;4.00;4.00;;;;;17.23;93.44;97922.63;8033664;21;96575;-58
2024/04/19 12:42:38;;;;;;;;;3.00;3.00;;;;;17.47;89.99;97904.38;7993972;21;94547;-57
2024/04/19 12:45:44;;;;;;;;;4.00;4.00;;;;;17.54;85.52;97913.03;8034403;21;94588;-58
2024/04/19 12:48:58;;;;;;;;;4.00;4.00;;;;;17.17;87.18;97897.34;8029231;21;94615;-58
2024/04/19 12:52:03;;;;;;;;;3.00;3.00;;;;;17.05;90.05;97896.94;8037770;21;97292;-58
2024/04/19 12:55:09;;;;;;;;;3.00;3.00;;;;;16.33;100.00;97933.94;7992949;21;94547;-58
2024/04/19 12:58:15;;;;;;;;;4.00;3.00;;;;;16.19;100.00;97911.19;8038896;21;95117;-58
2024/04/19 13:04:55;;;;;;;;;4.00;4.00;;;;;16.18;100.00;97914.16;7990877;21;96316;-58
2024/04/19 13:08:01;;;;;;;;;3.00;3.00;;;;;16.00;100.00;97905.59;8035809;21;94549;-58
2024/04/19 13:11:09;;;;;;;;;2.00;2.00;;;;;15.60;100.00;97879.41;7998963;21;95003;-53
2024/04/19 13:14:19;;;;;;;;;2.00;2.00;;;;;15.85;100.00;97926.59;8016855;21;97864;-53
2024/04/19 13:17:39;;;;;;;;;2.67;2.00;;;;;15.64;100.00;97900.63;8061530;21;94861;-53
2024/04/19 13:21:05;;;;;;;;;2.50;2.00;;;;;15.59;100.00;97893.28;8061301;21;94915;-54
2024/04/19 13:24:19;;;;;;;;;2.80;2.80;;;;;15.10;100.00;97882.28;8063481;21;94453;-54
2024/04/19 13:27:38;;;;;;;;;2.60;2.60;;;;;15.47;100.00;97890.84;8061204;21;97071;-53
2024/04/19 13:30:49;;;;;;;;;2.00;2.00;;;;;15.56;100.00;97880.25;8017368;21;96882;-54
2024/04/19 13:37:30;;;;;;;;;2.00;1.00;;;;;15.67;100.00;97870.16;8062074;21;94965;-53
2024/04/19 13:40:37;;;;;;;;;3.00;3.00;;;;;15.91;100.00;97869.22;8016942;21;94239;-53
2024/04/19 13:47:11;;;;;;;;;3.00;3.00;;;;;16.17;100.00;97869.88;8062555;21;94316;-53
2024/04/19 13:50:17;;;;;;;;;3.00;2.20;;;;;16.21;100.00;97859.25;8059293;21;94253;-53
2024/04/19 13:53:40;;;;;;;;;4.00;3.00;;;;;16.28;100.00;97841.50;8014996;21;95312;-55
2024/04/19 13:56:56;;;;;;;;;2.20;2.20;;;;;16.31;100.00;97842.84;8063054;21;94278;-53
2024/04/19 14:00:04;;;;;;;;;2.00;2.00;;;;;16.55;100.00;97845.66;8018206;21;94346;-54
2024/04/19 14:03:17;;;;;;;;;3.00;3.00;;;;;16.54;99.52;97847.56;8061890;21;94349;-53
2024/04/19 14:06:23;;;;;;;;;5.00;4.00;;;;;16.33;100.00;97846.91;8061648;21;94254;-55
2024/04/19 14:13:26;;;;;;;;;4.00;3.00;;;;;16.40;100.00;97830.25;8061534;21;95350;-54
2024/04/19 14:16:33;;;;;;;;;4.80;4.80;;;;;16.31;97.57;97830.06;8063749;21;94538;-54
2024/04/19 14:19:38;;;;;;;;;3.00;3.00;;;;;15.73;100.00;97822.84;8063404;21;94608;-55
2024/04/19 14:22:44;;;;;;;;;3.00;3.00;;;;;15.04;100.00;97724.06;8040870;21;94287;-58
2024/04/19 14:25:50;;;;;;;;;3.00;3.00;;;;;15.62;100.00;97832.16;7991882;21;94875;-57
2024/04/19 14:28:59;;;;;;;;;4.00;3.00;;;;;15.62;100.00;97813.13;8040503;21;94274;-57
2024/04/19 14:38:52;;;;;;;;;3.00;3.00;;;;;15.63;100.00;97787.59;8034585;21;94736;-58
2024/04/19 14:41:58;;;;;;;;;5.00;4.00;;;;;15.78;100.00;97804.63;8035834;21;94635;-57
2024/04/19 14:45:08;;;;;;;;;4.00;3.60;;;;;15.87;100.00;97786.63;8037220;21;95822;-57
2024/04/19 14:48:15;;;;;;;;;3.80;3.00;;;;;15.82;100.00;97786.66;8036658;21;94817;-58
2024/04/19 14:59:19;;;;;;;;;3.75;3.75;;;;;15.88;98.28;97774.63;8036485;21;94647;-57
2024/04/19 15:02:29;;;;;;;;;3.00;3.00;;;;;15.88;100.00;97782.78;7993171;21;96633;-57
2024/04/19 15:05:34;;;;;;;;;4.00;4.00;;;;;15.93;99.78;97768.38;8038522;21;94663;-57
2024/04/19 15:08:40;;;;;;;;;4.00;4.00;;;;;15.81;99.13;97757.84;8037955;21;94686;-57
2024/04/19 15:11:45;;;;;;;;;4.40;4.00;;;;;15.82;100.00;97759.47;8040327;21;94607;-57
2024/04/19 15:14:51;;;;;;;;;4.00;4.00;;;;;15.73;100.00;97744.88;8040164;21;94897;-57
2024/04/19 15:17:59;;;;;;;;;5.00;4.00;;;;;15.74;97.81;97751.91;7993502;21;96605;-57
2024/04/19 15:21:11;;;;;;;;;3.00;3.00;;;;;15.71;99.98;97749.75;8037378;21;94290;-57
2024/04/19 15:24:31;;;;;;;;;3.00;3.00;;;;;15.70;99.79;97744.59;8034845;21;96088;-57
2024/04/19 15:27:48;;;;;;;;;5.00;5.00;;;;;15.67;100.00;97747.91;8036419;21;94770;-57
2024/04/19 15:31:00;;;;;;;;;3.40;3.00;;;;;15.40;100.00;97740.13;8066147;21;95769;-86
2024/04/19 15:34:20;;;;;;;;;3.80;3.80;;;;;15.43;100.00;97740.41;8069036;21;95534;-85
2024/04/19 15:38:09;;;;;;;;;6.40;6.40;;;;;15.50;100.00;97740.09;8062203;21;97412;-88
2024/04/19 15:41:16;;;;;;;;;2.50;2.00;;;;;15.03;99.69;97737.91;8030702;21;97101;-87